createdAt,value
2022-12-26T00:03:01.789Z,93.42
2022-12-26T00:06:04.079Z,93.60
2022-12-26T00:09:06.878Z,93.58
2022-12-26T00:12:08.808Z,94.06
2022-12-26T00:15:10.872Z,93.75
2022-12-26T00:18:12.849Z,93.97
2022-12-26T00:21:16.207Z,93.83
2022-12-26T00:24:18.050Z,94.37
2022-12-26T00:27:20.237Z,94.60
2022-12-26T00:30:22.559Z,94.51
2022-12-26T00:33:24.620Z,94.50
2022-12-26T00:36:32.857Z,94.47
2022-12-26T00:39:34.710Z,94.39
2022-12-26T00:42:36.486Z,94.52
2022-12-26T00:45:38.336Z,94.38
2022-12-26T00:48:40.213Z,94.27
2022-12-26T00:51:42.050Z,94.31
2022-12-26T00:54:43.896Z,94.17
2022-12-26T00:57:45.796Z,94.10
2022-12-26T01:00:48.361Z,94.24
2022-12-26T01:03:51.153Z,93.91
2022-12-26T01:06:52.996Z,94.02
2022-12-26T01:09:54.900Z,93.84
2022-12-26T01:12:56.755Z,93.99
2022-12-26T01:15:58.654Z,94.14
2022-12-26T01:19:00.593Z,93.89
2022-12-26T01:22:03.637Z,93.97
2022-12-26T01:25:06.101Z,93.65
2022-12-26T01:28:08.144Z,94.01
2022-12-26T01:31:09.978Z,93.55
2022-12-26T01:34:11.929Z,93.53
2022-12-26T01:37:14.716Z,93.53
2022-12-26T01:40:16.727Z,93.82
2022-12-26T01:43:18.574Z,93.70
2022-12-26T01:46:31.215Z,93.48
2022-12-26T01:49:41.996Z,93.58
2022-12-26T01:52:47.198Z,93.54
2022-12-26T01:55:59.236Z,93.68
2022-12-26T01:59:15.402Z,93.79
2022-12-26T02:02:19.418Z,93.69
2022-12-26T02:05:35.261Z,93.51
2022-12-26T02:08:39.158Z,93.55
2022-12-26T02:11:48.758Z,93.74
2022-12-26T02:15:13.932Z,93.53
2022-12-26T02:18:15.776Z,93.41
2022-12-26T02:21:49.922Z,93.25
2022-12-26T02:25:11.292Z,93.65
2022-12-26T02:28:25.915Z,93.19
2022-12-26T02:31:55.374Z,93.26
2022-12-26T02:35:06.091Z,93.50
2022-12-26T02:38:21.926Z,93.23
2022-12-26T02:41:32.449Z,93.68
2022-12-26T02:45:33.633Z,93.11
2022-12-26T02:48:44.301Z,93.77
2022-12-26T02:52:16.890Z,93.54
2022-12-26T02:56:00.698Z,93.53
2022-12-26T02:59:54.527Z,93.45
2022-12-26T03:03:40.940Z,93.46
2022-12-26T03:07:06.803Z,93.70
2022-12-26T03:10:38.585Z,93.24
2022-12-26T03:13:42.013Z,93.42
2022-12-26T03:17:08.628Z,93.35
2022-12-26T03:20:20.907Z,93.71
2022-12-26T03:23:23.083Z,93.24
2022-12-26T03:26:41.083Z,93.67
2022-12-26T03:30:21.414Z,93.29
2022-12-26T03:33:43.410Z,93.53
2022-12-26T03:37:03.658Z,93.39
2022-12-26T03:41:05.392Z,93.41
2022-12-26T03:44:55.476Z,93.45
2022-12-26T03:48:33.292Z,93.35
2022-12-26T03:52:05.487Z,93.40
2022-12-26T03:55:37.901Z,93.44
2022-12-26T03:59:29.331Z,93.29
2022-12-26T04:02:52.461Z,93.49
2022-12-26T04:06:16.038Z,93.85
2022-12-26T04:09:53.511Z,93.42
2022-12-26T04:13:16.855Z,93.76
2022-12-26T04:16:54.148Z,93.82
2022-12-26T04:20:01.956Z,93.88
2022-12-26T04:23:41.916Z,93.96
2022-12-26T04:27:06.380Z,94.05
2022-12-26T04:30:27.192Z,93.91
2022-12-26T04:33:58.805Z,93.72
2022-12-26T04:37:23.754Z,93.96
2022-12-26T04:40:49.381Z,94.03
2022-12-26T04:44:25.400Z,93.71
2022-12-26T04:47:27.318Z,93.86
2022-12-26T04:50:29.800Z,94.02
2022-12-26T04:53:31.696Z,93.91
2022-12-26T04:56:33.888Z,93.84
2022-12-26T04:59:35.836Z,93.74
2022-12-26T05:02:56.703Z,93.71
2022-12-26T05:06:17.284Z,93.60
2022-12-26T05:09:35.287Z,93.86
2022-12-26T05:12:37.134Z,93.62
2022-12-26T05:15:57.808Z,93.57
2022-12-26T05:19:18.126Z,93.42
2022-12-26T05:22:39.726Z,93.85
2022-12-26T05:26:03.260Z,93.63
2022-12-26T05:29:05.329Z,93.49
2022-12-26T05:32:07.200Z,93.68
2022-12-26T05:35:09.311Z,93.57
2022-12-26T05:38:11.950Z,93.51
2022-12-26T05:41:14.629Z,93.56
2022-12-26T05:44:16.525Z,93.19
2022-12-26T05:47:19.821Z,93.29
2022-12-26T05:50:21.723Z,92.88
2022-12-26T05:53:23.515Z,93.05
2022-12-26T05:56:25.468Z,92.90
2022-12-26T05:59:27.748Z,92.97
2022-12-26T06:02:29.848Z,92.94
2022-12-26T06:05:32.015Z,92.95
2022-12-26T06:08:34.410Z,93.15
2022-12-26T06:11:36.250Z,93.00
2022-12-26T06:14:38.035Z,93.08
2022-12-26T06:17:39.843Z,93.07
2022-12-26T06:20:41.661Z,92.27
2022-12-26T06:23:44.055Z,92.61
2022-12-26T06:26:45.978Z,92.73
2022-12-26T06:29:48.495Z,92.81
2022-12-26T06:32:50.384Z,92.79
2022-12-26T06:35:54.643Z,92.71
2022-12-26T06:38:57.287Z,92.58
2022-12-26T06:41:59.058Z,92.43
2022-12-26T06:45:00.916Z,92.51
2022-12-26T06:48:03.194Z,92.57
2022-12-26T06:51:06.855Z,92.25
2022-12-26T06:54:09.548Z,92.67
2022-12-26T06:57:11.502Z,92.38
2022-12-26T07:00:14.224Z,92.13
2022-12-26T07:03:16.306Z,92.34
2022-12-26T07:06:33.000Z,92.22
2022-12-26T07:09:34.994Z,92.56
2022-12-26T07:12:36.812Z,92.32
2022-12-26T07:15:38.990Z,91.99
2022-12-26T07:18:41.131Z,92.10
2022-12-26T07:21:43.533Z,91.91
2022-12-26T07:24:45.299Z,91.93
2022-12-26T07:27:47.178Z,91.93
2022-12-26T07:30:50.400Z,91.68
2022-12-26T07:33:54.716Z,91.89
2022-12-26T07:36:56.552Z,91.64
2022-12-26T07:39:59.327Z,91.84
2022-12-26T07:43:01.188Z,91.57
2022-12-26T07:46:03.012Z,91.63
2022-12-26T07:49:05.147Z,91.68
2022-12-26T07:52:07.012Z,91.62
2022-12-26T07:55:09.389Z,91.31
2022-12-26T07:58:11.316Z,91.50
2022-12-26T08:01:13.222Z,91.48
2022-12-26T08:04:15.190Z,91.23
2022-12-26T08:08:21.180Z,91.58
2022-12-26T08:11:24.584Z,91.55
2022-12-26T08:14:26.453Z,91.61
2022-12-26T08:17:31.436Z,91.69
2022-12-26T08:20:34.663Z,91.23
2022-12-26T08:23:36.631Z,91.05
2022-12-26T08:26:38.557Z,91.46
2022-12-26T08:29:40.379Z,91.42
2022-12-26T08:32:46.031Z,91.49
2022-12-26T08:35:48.333Z,91.26
2022-12-26T08:38:50.139Z,91.30
2022-12-26T08:41:52.079Z,91.15
2022-12-26T08:44:54.176Z,91.25
2022-12-26T08:47:56.016Z,91.05
2022-12-26T08:51:09.344Z,90.94
2022-12-26T08:54:11.559Z,90.94
2022-12-26T08:57:13.904Z,91.08
2022-12-26T09:00:16.348Z,91.14
2022-12-26T09:03:18.358Z,90.93
2022-12-26T09:06:20.381Z,91.35
2022-12-26T09:09:22.232Z,91.04
2022-12-26T09:12:24.145Z,90.66
2022-12-26T09:15:25.945Z,90.78
2022-12-26T09:18:27.870Z,91.16
2022-12-26T09:21:30.478Z,90.88
2022-12-26T09:24:32.329Z,90.87
2022-12-26T09:27:34.551Z,91.08
2022-12-26T09:30:37.079Z,90.93
2022-12-26T09:33:39.555Z,91.01
2022-12-26T09:36:41.518Z,90.71
2022-12-26T09:39:43.330Z,90.78
2022-12-26T09:46:59.831Z,90.94
2022-12-26T09:50:07.555Z,90.88
2022-12-26T09:53:18.034Z,90.77
2022-12-26T10:00:02.055Z,90.57
2022-12-26T10:04:29.157Z,90.53
2022-12-26T10:07:48.558Z,90.90
2022-12-26T10:11:07.706Z,90.62
2022-12-26T10:14:21.383Z,90.66
2022-12-26T10:17:23.692Z,90.78
2022-12-26T10:20:54.147Z,90.73
2022-12-26T10:24:15.851Z,90.33
2022-12-26T10:27:20.025Z,90.62
2022-12-26T10:30:27.419Z,90.55
2022-12-26T10:34:04.515Z,90.47
2022-12-26T10:37:30.905Z,90.39
2022-12-26T10:40:43.810Z,90.37
2022-12-26T10:43:46.066Z,90.18
2022-12-26T10:47:12.774Z,90.33
2022-12-26T10:50:20.237Z,90.27
2022-12-26T10:53:24.539Z,90.44
2022-12-26T10:56:27.570Z,90.35
2022-12-26T10:59:38.451Z,90.37
2022-12-26T11:02:40.647Z,90.14
2022-12-26T11:06:08.179Z,89.85
2022-12-26T11:09:35.832Z,89.61
2022-12-26T11:12:50.199Z,89.62
2022-12-26T11:15:53.582Z,90.23
2022-12-26T11:18:56.431Z,90.24
2022-12-26T11:22:26.564Z,90.18
2022-12-26T11:25:29.480Z,90.13
2022-12-26T11:28:33.204Z,90.01
2022-12-26T11:31:35.730Z,90.10
2022-12-26T11:34:46.075Z,90.17
2022-12-26T11:37:53.893Z,90.23
2022-12-26T11:41:14.311Z,90.22
2022-12-26T11:44:16.111Z,90.66
2022-12-26T11:47:21.064Z,90.54
2022-12-26T11:50:26.969Z,90.70
2022-12-26T11:53:28.873Z,90.90
2022-12-26T11:56:30.730Z,91.13
2022-12-26T11:59:32.788Z,91.10
2022-12-26T12:02:36.975Z,90.84
2022-12-26T15:30:19.202Z,100.00
2022-12-26T15:33:33.432Z,100.00
2022-12-26T15:37:08.082Z,100.00
2022-12-26T15:40:24.862Z,100.00
2022-12-26T15:43:58.448Z,100.00
2022-12-26T15:47:38.831Z,100.00
2022-12-26T15:50:49.358Z,100.00
2022-12-26T15:54:15.503Z,99.91
2022-12-26T15:57:34.420Z,99.60
2022-12-26T16:00:47.419Z,99.24
2022-12-26T16:03:56.955Z,99.35
2022-12-26T16:07:51.901Z,99.12
2022-12-26T16:11:21.959Z,98.72
2022-12-26T16:14:31.368Z,98.90
2022-12-26T16:17:34.113Z,98.68
2022-12-26T16:20:55.139Z,98.55
2022-12-26T16:23:57.551Z,98.61
2022-12-26T16:27:03.472Z,98.41
2022-12-26T16:30:12.890Z,98.48
2022-12-26T16:33:15.244Z,98.18
2022-12-26T16:36:24.699Z,98.02
2022-12-26T16:39:26.630Z,97.92
2022-12-26T16:42:31.205Z,97.62
2022-12-26T16:45:38.186Z,97.69
2022-12-26T16:48:41.670Z,97.72
2022-12-26T16:51:43.500Z,97.39
2022-12-26T16:54:45.291Z,97.77
2022-12-26T16:57:47.142Z,97.45
2022-12-26T17:01:14.213Z,96.95
2022-12-26T17:04:18.362Z,97.42
2022-12-26T17:07:20.948Z,97.00
2022-12-26T17:10:29.631Z,97.11
2022-12-26T17:13:31.703Z,97.09
2022-12-26T17:16:33.831Z,96.72
2022-12-26T17:19:37.308Z,96.74
2022-12-26T17:22:39.225Z,96.61
2022-12-26T17:25:45.624Z,96.87
2022-12-26T17:28:51.457Z,96.84
2022-12-26T17:31:53.325Z,96.57
2022-12-26T17:34:55.221Z,96.28
2022-12-26T17:38:02.875Z,96.38
2022-12-26T17:41:06.917Z,96.51
2022-12-26T17:44:42.933Z,96.38
2022-12-26T17:47:45.275Z,96.67
2022-12-26T17:50:56.183Z,96.57
2022-12-26T17:53:58.054Z,96.56
2022-12-26T17:57:00.819Z,96.64
2022-12-26T18:00:07.418Z,96.63
2022-12-26T18:03:09.444Z,96.40
2022-12-26T18:06:16.547Z,96.45
2022-12-26T18:09:29.163Z,96.50
2022-12-26T18:12:31.097Z,96.42
2022-12-26T18:15:32.895Z,96.73
2022-12-26T18:18:37.615Z,96.29
2022-12-26T18:21:40.289Z,96.61
2022-12-26T18:24:42.239Z,96.30
2022-12-26T18:27:44.422Z,96.48
2022-12-26T18:30:46.923Z,96.11
2022-12-26T18:33:48.811Z,96.38
2022-12-26T18:36:50.853Z,96.73
2022-12-26T18:39:53.065Z,96.41
2022-12-26T18:42:55.591Z,96.25
2022-12-26T18:45:58.777Z,96.13
2022-12-26T18:49:00.837Z,96.19
2022-12-26T18:52:03.539Z,96.04
2022-12-26T18:55:05.803Z,96.27
2022-12-26T18:58:08.172Z,96.38
2022-12-26T19:01:14.255Z,96.43
2022-12-26T19:04:16.696Z,96.29
2022-12-26T19:07:20.483Z,96.54
2022-12-26T19:10:25.869Z,96.47
2022-12-26T19:13:28.253Z,96.70
2022-12-26T19:16:30.140Z,96.34
2022-12-26T19:19:32.540Z,96.53
2022-12-26T19:22:34.764Z,96.72
2022-12-26T19:25:36.605Z,96.44
2022-12-26T19:28:39.221Z,96.65
2022-12-26T19:31:41.749Z,96.46
2022-12-26T19:34:43.612Z,96.73
2022-12-26T19:37:45.949Z,96.84
2022-12-26T19:40:47.780Z,96.70
2022-12-26T19:43:56.139Z,96.77
2022-12-26T19:47:11.453Z,96.59
2022-12-26T19:50:14.791Z,96.47
2022-12-26T19:53:16.759Z,96.85
2022-12-26T19:56:23.934Z,96.67
2022-12-26T19:59:26.439Z,96.44
2022-12-26T20:02:28.539Z,96.66
2022-12-26T20:05:30.458Z,96.49
2022-12-26T20:08:32.336Z,96.35
2022-12-26T20:11:37.506Z,96.26
2022-12-26T20:14:39.347Z,96.65
2022-12-26T20:17:41.230Z,96.41
2022-12-26T20:20:43.311Z,96.47
2022-12-26T20:23:45.758Z,96.15
2022-12-26T20:26:49.323Z,96.30
2022-12-26T20:29:51.227Z,96.01
2022-12-26T20:32:53.094Z,96.38
2022-12-26T20:36:02.121Z,96.46
2022-12-26T20:39:07.156Z,96.35
2022-12-26T20:42:09.109Z,96.15
2022-12-26T20:45:11.210Z,95.81
2022-12-26T20:48:13.373Z,96.02
2022-12-26T20:51:20.901Z,96.05
2022-12-26T20:54:22.933Z,95.90
2022-12-26T20:57:24.770Z,95.74
2022-12-26T21:00:26.679Z,96.17
2022-12-26T21:03:30.361Z,96.10
2022-12-26T21:06:35.309Z,95.74
2022-12-26T21:09:42.448Z,95.86
2022-12-26T21:12:47.675Z,95.53
2022-12-26T21:15:49.695Z,95.79
2022-12-26T21:18:51.786Z,95.42
2022-12-26T21:21:55.366Z,95.88
2022-12-26T21:24:58.276Z,95.66
2022-12-26T21:28:00.039Z,95.82
2022-12-26T21:31:02.675Z,95.91
2022-12-26T21:34:05.817Z,95.67
2022-12-26T21:37:26.077Z,95.68
2022-12-26T21:40:28.010Z,95.85
2022-12-26T21:43:30.588Z,96.11
2022-12-26T21:46:32.635Z,95.90
2022-12-26T21:49:35.033Z,95.68
2022-12-26T21:52:36.886Z,95.46
2022-12-26T21:55:38.848Z,96.06
2022-12-26T21:58:59.644Z,95.94
2022-12-26T22:02:01.720Z,96.10
2022-12-26T22:05:04.068Z,95.99
2022-12-26T22:08:08.471Z,96.06
2022-12-26T22:11:36.065Z,95.83
2022-12-26T22:14:37.957Z,95.90
2022-12-26T22:17:39.774Z,95.99
2022-12-26T22:20:41.720Z,95.77
2022-12-26T22:23:44.641Z,96.13
2022-12-26T22:26:46.501Z,95.93
2022-12-26T22:29:48.443Z,95.87
2022-12-26T22:32:50.268Z,95.93
2022-12-26T22:35:52.267Z,95.72
2022-12-26T22:38:54.449Z,95.60
2022-12-26T22:42:02.129Z,95.90
2022-12-26T22:45:04.714Z,95.97
2022-12-26T22:48:06.683Z,95.92
2022-12-26T22:51:09.530Z,95.49
2022-12-26T22:54:11.369Z,95.34
2022-12-26T22:57:13.957Z,95.36
2022-12-26T23:00:16.095Z,95.88
2022-12-26T23:03:18.889Z,96.09
2022-12-26T23:06:24.597Z,95.81
2022-12-26T23:09:26.772Z,95.63
2022-12-26T23:12:44.114Z,95.51
2022-12-26T23:16:09.466Z,95.69
2022-12-26T23:19:35.084Z,95.68
2022-12-26T23:22:37.148Z,95.58
2022-12-26T23:25:39.715Z,95.73
2022-12-26T23:29:00.507Z,95.73
2022-12-26T23:32:03.329Z,95.91
2022-12-26T23:35:06.466Z,95.75
2022-12-26T23:38:08.336Z,95.82
2022-12-26T23:41:10.196Z,95.69
2022-12-26T23:44:12.246Z,95.56
2022-12-26T23:47:14.141Z,95.71
2022-12-26T23:50:17.294Z,95.61
2022-12-26T23:53:19.072Z,95.83
2022-12-26T23:56:21.172Z,95.66
2022-12-26T23:59:23.070Z,95.82
